sensor_id;sensor_type;location;lat;lon;timestamp;pressure;altitude;pressure_sealevel;temperature;humidity
62420;BME280;48460;51.616;5.426;2023-04-03T04:58:36;102947.59;;;0.41;100.00
62420;BME280;48460;51.616;5.426;2023-04-03T05:01:07;102957.94;;;0.41;100.00
62420;BME280;48460;51.616;5.426;2023-04-03T05:04:18;102958.84;;;0.42;100.00
62420;BME280;48460;51.616;5.426;2023-04-03T05:07:28;102971.75;;;0.40;100.00
62420;BME280;48460;51.616;5.426;2023-04-03T05:10:31;102959.53;;;0.35;100.00
62420;BME280;48460;51.616;5.426;2023-04-03T05:27:14;102977.63;;;0.35;100.00
62420;BME280;48460;51.616;5.426;2023-04-03T05:30:09;102961.03;;;0.27;100.00
62420;BME280;48460;51.616;5.426;2023-04-03T05:32:59;102972.38;;;0.30;100.00
62420;BME280;48460;51.616;5.426;2023-04-03T05:35:27;102962.03;;;0.32;100.00
62420;BME280;48460;51.616;5.426;2023-04-03T05:38:32;102966.41;;;0.33;100.00
62420;BME280;48460;51.616;5.426;2023-04-03T05:44:42;102983.03;;;0.42;100.00
62420;BME280;48460;51.616;5.426;2023-04-03T05:48:08;102985.63;;;0.44;100.00
62420;BME280;48460;51.616;5.426;2023-04-03T05:57:47;102988.28;;;0.45;100.00
62420;BME280;48460;51.616;5.426;2023-04-03T06:07:46;102994.81;;;0.67;100.00
62420;BME280;48460;51.616;5.426;2023-04-03T06:13:54;102990.44;;;0.65;100.00
62420;BME280;48460;51.616;5.426;2023-04-03T06:19:51;103001.09;;;0.77;100.00
62420;BME280;48460;51.616;5.426;2023-04-03T06:22:43;103000.63;;;0.94;100.00
62420;BME280;48460;51.616;5.426;2023-04-03T06:25:42;103010.53;;;1.13;100.00
62420;BME280;48460;51.616;5.426;2023-04-03T06:29:07;103015.72;;;1.54;100.00
62420;BME280;48460;51.616;5.426;2023-04-03T06:31:58;103018.91;;;1.81;100.00
62420;BME280;48460;51.616;5.426;2023-04-03T06:34:53;103014.91;;;2.00;100.00
62420;BME280;48460;51.616;5.426;2023-04-03T06:37:34;103002.63;;;2.40;100.00
62420;BME280;48460;51.616;5.426;2023-04-03T06:40:05;103006.41;;;2.59;100.00
62420;BME280;48460;51.616;5.426;2023-04-03T06:49:34;103023.38;;;3.54;100.00
62420;BME280;48460;51.616;5.426;2023-04-03T06:55:44;103019.47;;;3.95;100.00
62420;BME280;48460;51.616;5.426;2023-04-03T06:58:42;103043.06;;;4.10;99.92
62420;BME280;48460;51.616;5.426;2023-04-03T07:40:05;103069.63;;;6.21;83.21
62420;BME280;48460;51.616;5.426;2023-04-03T07:45:59;103064.44;;;6.58;78.10
62420;BME280;48460;51.616;5.426;2023-04-03T07:52:21;103071.41;;;7.05;77.97
62420;BME280;48460;51.616;5.426;2023-04-03T08:02:21;103065.25;;;7.21;73.63
62420;BME280;48460;51.616;5.426;2023-04-03T08:04:48;103054.81;;;7.23;71.49
62420;BME280;48460;51.616;5.426;2023-04-03T08:07:45;103070.44;;;7.40;73.72
62420;BME280;48460;51.616;5.426;2023-04-03T08:10:59;103069.47;;;7.71;75.23
62420;BME280;48460;51.616;5.426;2023-04-03T08:20:55;103069.91;;;8.50;63.50
62420;BME280;48460;51.616;5.426;2023-04-03T08:51:33;103081.50;;;9.23;51.50
62420;BME280;48460;51.616;5.426;2023-04-03T09:05:48;103086.47;;;10.19;46.53
62420;BME280;48460;51.616;5.426;2023-04-03T10:16:20;103047.59;;;12.21;27.50
62420;BME280;48460;51.616;5.426;2023-04-03T11:35:13;102982.94;;;13.95;26.96
62420;BME280;48460;51.616;5.426;2023-04-03T12:04:53;102954.63;;;15.01;25.16
62420;BME280;48460;51.616;5.426;2023-04-03T12:26:24;102942.41;;;15.68;24.80
62420;BME280;48460;51.616;5.426;2023-04-03T12:51:02;102922.56;;;14.84;27.10
62420;BME280;48460;51.616;5.426;2023-04-03T12:54:13;102917.88;;;14.92;26.48
62420;BME280;48460;51.616;5.426;2023-04-03T12:59:55;102902.28;;;15.98;25.71
62420;BME280;48460;51.616;5.426;2023-04-03T13:03:04;102899.00;;;15.91;25.96
62420;BME280;48460;51.616;5.426;2023-04-03T13:05:37;102911.72;;;15.37;24.94
62420;BME280;48460;51.616;5.426;2023-04-03T13:19:15;102889.53;;;15.18;26.09
62420;BME280;48460;51.616;5.426;2023-04-03T13:25:15;102876.16;;;14.74;26.11
62420;BME280;48460;51.616;5.426;2023-04-03T13:28:05;102871.47;;;14.57;27.64
62420;BME280;48460;51.616;5.426;2023-04-03T13:30:38;102876.75;;;14.82;27.98
62420;BME280;48460;51.616;5.426;2023-04-03T13:33:29;102884.34;;;14.68;27.36
62420;BME280;48460;51.616;5.426;2023-04-03T13:36:22;102877.44;;;14.64;27.30
62420;BME280;48460;51.616;5.426;2023-04-03T13:41:55;102876.94;;;14.52;27.47
62420;BME280;48460;51.616;5.426;2023-04-03T13:44:39;102874.00;;;14.60;28.31
62420;BME280;48460;51.616;5.426;2023-04-03T13:47:22;102871.38;;;14.84;27.78
62420;BME280;48460;51.616;5.426;2023-04-03T13:53:01;102863.50;;;15.27;27.18
62420;BME280;48460;51.616;5.426;2023-04-03T13:55:35;102869.19;;;14.95;25.85
62420;BME280;48460;51.616;5.426;2023-04-03T13:58:27;102851.00;;;14.86;26.79
62420;BME280;48460;51.616;5.426;2023-04-03T14:00:59;102865.09;;;14.86;27.44
62420;BME280;48460;51.616;5.426;2023-04-03T14:03:40;102858.19;;;15.06;28.02
62420;BME280;48460;51.616;5.426;2023-04-03T14:06:24;102854.03;;;14.98;27.68
62420;BME280;48460;51.616;5.426;2023-04-03T14:08:51;102851.03;;;14.84;28.03
62420;BME280;48460;51.616;5.426;2023-04-03T14:11:26;102852.41;;;15.18;29.32
62420;BME280;48460;51.616;5.426;2023-04-03T14:13:55;102848.78;;;15.42;27.85
62420;BME280;48460;51.616;5.426;2023-04-03T14:16:27;102840.88;;;15.19;27.92
62420;BME280;48460;51.616;5.426;2023-04-03T14:18:54;102855.13;;;15.16;28.61
62420;BME280;48460;51.616;5.426;2023-04-03T14:21:20;102841.38;;;15.28;27.63
62420;BME280;48460;51.616;5.426;2023-04-03T14:23:47;102839.66;;;15.49;28.29
62420;BME280;48460;51.616;5.426;2023-04-03T14:26:21;102843.13;;;15.74;28.28
62420;BME280;48460;51.616;5.426;2023-04-03T14:28:49;102848.53;;;15.92;27.96
62420;BME280;48460;51.616;5.426;2023-04-03T14:31:18;102858.66;;;15.83;28.26
62420;BME280;48460;51.616;5.426;2023-04-03T14:33:44;102844.72;;;15.34;27.42
62420;BME280;48460;51.616;5.426;2023-04-03T14:36:16;102839.03;;;15.43;28.34
62420;BME280;48460;51.616;5.426;2023-04-03T14:38:43;102852.03;;;15.93;27.75
62420;BME280;48460;51.616;5.426;2023-04-03T14:41:14;102846.91;;;15.68;26.33
62420;BME280;48460;51.616;5.426;2023-04-03T14:43:41;102853.84;;;15.26;27.31
62420;BME280;48460;51.616;5.426;2023-04-03T14:46:35;102847.38;;;14.65;27.96
62420;BME280;48460;51.616;5.426;2023-04-03T14:49:15;102829.50;;;14.46;28.32
62420;BME280;48460;51.616;5.426;2023-04-03T14:51:43;102821.00;;;14.36;28.51
62420;BME280;48460;51.616;5.426;2023-04-03T14:54:18;102838.22;;;14.48;30.20
62420;BME280;48460;51.616;5.426;2023-04-03T14:56:47;102825.16;;;14.44;29.53
62420;BME280;48460;51.616;5.426;2023-04-03T14:59:13;102828.31;;;14.05;29.32
62420;BME280;48460;51.616;5.426;2023-04-03T15:01:40;102806.00;;;13.87;29.69
62420;BME280;48460;51.616;5.426;2023-04-03T15:04:20;102823.59;;;13.61;29.48
62420;BME280;48460;51.616;5.426;2023-04-03T15:06:47;102818.91;;;13.43;29.86
62420;BME280;48460;51.616;5.426;2023-04-03T15:09:26;102814.50;;;13.14;30.36
62420;BME280;48460;51.616;5.426;2023-04-03T15:11:53;102804.31;;;13.03;30.46
62420;BME280;48460;51.616;5.426;2023-04-03T15:14:19;102801.41;;;12.83;30.83
62420;BME280;48460;51.616;5.426;2023-04-03T15:16:45;102803.03;;;12.57;31.18
62420;BME280;48460;51.616;5.426;2023-04-03T15:19:11;102803.84;;;12.28;32.40
62420;BME280;48460;51.616;5.426;2023-04-03T15:21:38;102795.22;;;11.89;32.92
62420;BME280;48460;51.616;5.426;2023-04-03T15:24:04;102801.94;;;11.66;33.99
62420;BME280;48460;51.616;5.426;2023-04-03T15:26:31;102806.56;;;11.56;34.16
62420;BME280;48460;51.616;5.426;2023-04-03T15:28:59;102798.88;;;11.47;34.94
62420;BME280;48460;51.616;5.426;2023-04-03T15:31:25;102786.06;;;11.32;33.97
62420;BME280;48460;51.616;5.426;2023-04-03T15:33:50;102797.66;;;11.25;34.88
62420;BME280;48460;51.616;5.426;2023-04-03T15:36:16;102793.47;;;11.16;35.40
62420;BME280;48460;51.616;5.426;2023-04-03T15:38:44;102803.22;;;11.12;35.12
62420;BME280;48460;51.616;5.426;2023-04-03T15:41:09;102800.03;;;10.98;34.52
62420;BME280;48460;51.616;5.426;2023-04-03T15:43:35;102803.81;;;10.85;34.96
62420;BME280;48460;51.616;5.426;2023-04-03T15:46:01;102805.81;;;10.73;35.61
62420;BME280;48460;51.616;5.426;2023-04-03T15:51:25;102802.44;;;10.67;36.35
62420;BME280;48460;51.616;5.426;2023-04-03T15:53:53;102794.75;;;10.58;36.67
62420;BME280;48460;51.616;5.426;2023-04-03T15:56:19;102808.03;;;10.52;36.71
62420;BME280;48460;51.616;5.426;2023-04-03T15:58:44;102811.63;;;10.47;37.41
62420;BME280;48460;51.616;5.426;2023-04-03T16:01:13;102809.13;;;10.40;37.28
62420;BME280;48460;51.616;5.426;2023-04-03T16:03:41;102806.69;;;10.29;37.76
62420;BME280;48460;51.616;5.426;2023-04-03T16:06:15;102816.22;;;10.35;38.50
62420;BME280;48460;51.616;5.426;2023-04-03T16:11:14;102809.06;;;10.44;38.48
62420;BME280;48460;51.616;5.426;2023-04-03T16:13:47;102811.88;;;10.35;39.34
62420;BME280;48460;51.616;5.426;2023-04-03T16:16:14;102809.47;;;10.21;38.32
62420;BME280;48460;51.616;5.426;2023-04-03T16:18:40;102803.63;;;10.06;38.53
62420;BME280;48460;51.616;5.426;2023-04-03T16:21:06;102810.78;;;9.97;39.20
62420;BME280;48460;51.616;5.426;2023-04-03T16:23:33;102811.81;;;9.89;39.05
62420;BME280;48460;51.616;5.426;2023-04-03T16:25:59;102812.06;;;9.73;39.00
62420;BME280;48460;51.616;5.426;2023-04-03T16:28:25;102815.66;;;9.66;39.98
62420;BME280;48460;51.616;5.426;2023-04-03T16:30:50;102807.88;;;9.62;40.72
62420;BME280;48460;51.616;5.426;2023-04-03T16:33:18;102811.31;;;9.64;40.75
62420;BME280;48460;51.616;5.426;2023-04-03T16:35:46;102809.56;;;9.66;40.48
62420;BME280;48460;51.616;5.426;2023-04-03T16:38:19;102807.69;;;9.74;39.95
62420;BME280;48460;51.616;5.426;2023-04-03T16:40:54;102813.28;;;9.51;41.06
62420;BME280;48460;51.616;5.426;2023-04-03T16:43:22;102810.88;;;9.39;41.62
62420;BME280;48460;51.616;5.426;2023-04-03T16:45:48;102800.47;;;9.32;41.58
62420;BME280;48460;51.616;5.426;2023-04-03T16:48:17;102809.09;;;9.39;40.90
62420;BME280;48460;51.616;5.426;2023-04-03T16:50:47;102820.69;;;9.26;40.69
62420;BME280;48460;51.616;5.426;2023-04-03T16:53:19;102815.72;;;9.07;40.34
62420;BME280;48460;51.616;5.426;2023-04-03T16:55:48;102809.63;;;9.04;40.59
62420;BME280;48460;51.616;5.426;2023-04-03T16:58:27;102813.31;;;8.89;42.29
62420;BME280;48460;51.616;5.426;2023-04-03T17:01:20;102814.09;;;8.97;42.23
62420;BME280;48460;51.616;5.426;2023-04-03T17:03:48;102815.97;;;8.86;41.68
62420;BME280;48460;51.616;5.426;2023-04-03T17:06:19;102817.84;;;8.76;42.64
62420;BME280;48460;51.616;5.426;2023-04-03T17:08:56;102823.09;;;8.78;42.81
62420;BME280;48460;51.616;5.426;2023-04-03T17:11:35;102814.47;;;8.68;44.13
62420;BME280;48460;51.616;5.426;2023-04-03T17:14:01;102815.19;;;8.81;43.55
62420;BME280;48460;51.616;5.426;2023-04-03T17:16:28;102828.44;;;8.72;44.20
62420;BME280;48460;51.616;5.426;2023-04-03T17:19:16;102810.88;;;8.75;43.59
62420;BME280;48460;51.616;5.426;2023-04-03T17:22:06;102814.72;;;8.47;45.03
62420;BME280;48460;51.616;5.426;2023-04-03T17:24:49;102820.03;;;8.37;45.05
62420;BME280;48460;51.616;5.426;2023-04-03T17:31:27;102822.84;;;8.17;45.39
62420;BME280;48460;51.616;5.426;2023-04-03T17:33:53;102825.44;;;8.22;45.78
62420;BME280;48460;51.616;5.426;2023-04-03T17:36:21;102833.44;;;8.08;47.92
62420;BME280;48460;51.616;5.426;2023-04-03T17:38:51;102818.50;;;8.15;46.69
62420;BME280;48460;51.616;5.426;2023-04-03T17:41:30;102828.25;;;8.04;46.99
62420;BME280;48460;51.616;5.426;2023-04-03T17:44:20;102830.00;;;8.00;48.52
62420;BME280;48460;51.616;5.426;2023-04-03T17:49:29;102829.28;;;7.84;48.41
62420;BME280;48460;51.616;5.426;2023-04-03T17:52:15;102829.34;;;7.78;48.20
62420;BME280;48460;51.616;5.426;2023-04-03T17:55:02;102827.59;;;7.75;48.44
62420;BME280;48460;51.616;5.426;2023-04-03T17:58:12;102829.41;;;7.70;48.53
62420;BME280;48460;51.616;5.426;2023-04-03T18:00:40;102814.59;;;7.68;47.66
62420;BME280;48460;51.616;5.426;2023-04-03T18:03:06;102822.53;;;7.54;48.58
62420;BME280;48460;51.616;5.426;2023-04-03T18:05:42;102829.53;;;7.52;49.43
62420;BME280;48460;51.616;5.426;2023-04-03T18:08:14;102824.34;;;7.46;49.69
62420;BME280;48460;51.616;5.426;2023-04-03T18:10:44;102837.47;;;7.44;50.38
62420;BME280;48460;51.616;5.426;2023-04-03T18:13:39;102815.69;;;7.38;49.61
62420;BME280;48460;51.616;5.426;2023-04-03T18:16:11;102825.38;;;7.26;49.75
62420;BME280;48460;51.616;5.426;2023-04-03T18:18:52;102817.50;;;7.25;50.12
62420;BME280;48460;51.616;5.426;2023-04-03T18:21:19;102828.03;;;7.20;50.30
62420;BME280;48460;51.616;5.426;2023-04-03T18:23:53;102834.09;;;7.22;49.84
62420;BME280;48460;51.616;5.426;2023-04-03T18:29:59;102841.16;;;7.10;49.94
62420;BME280;48460;51.616;5.426;2023-04-03T18:32:40;102831.66;;;6.90;50.72
62420;BME280;48460;51.616;5.426;2023-04-03T18:35:11;102841.22;;;6.93;50.67
62420;BME280;48460;51.616;5.426;2023-04-03T18:37:51;102838.66;;;6.83;51.25
62420;BME280;48460;51.616;5.426;2023-04-03T18:40:56;102844.78;;;6.79;51.32
62420;BME280;48460;51.616;5.426;2023-04-03T18:43:51;102830.00;;;6.63;52.14
62420;BME280;48460;51.616;5.426;2023-04-03T18:46:23;102837.00;;;6.59;53.75
62420;BME280;48460;51.616;5.426;2023-04-03T18:48:53;102839.66;;;6.49;53.26
62420;BME280;48460;51.616;5.426;2023-04-03T18:51:59;102845.72;;;6.57;53.59
62420;BME280;48460;51.616;5.426;2023-04-03T18:57:40;102844.91;;;6.43;54.26
62420;BME280;48460;51.616;5.426;2023-04-03T19:00:26;102846.66;;;6.33;55.19
62420;BME280;48460;51.616;5.426;2023-04-03T19:03:21;102853.63;;;6.43;54.17
62420;BME280;48460;51.616;5.426;2023-04-03T19:06:41;102864.09;;;6.31;55.24
62420;BME280;48460;51.616;5.426;2023-04-03T19:10:30;102857.13;;;6.28;54.66
62420;BME280;48460;51.616;5.426;2023-04-03T19:24:05;102854.56;;;6.07;55.92
62420;BME280;48460;51.616;5.426;2023-04-03T19:26:48;102863.25;;;6.01;56.77
62420;BME280;48460;51.616;5.426;2023-04-03T19:29:16;102855.38;;;5.90;56.50
62420;BME280;48460;51.616;5.426;2023-04-03T19:31:46;102861.47;;;5.89;57.75
62420;BME280;48460;51.616;5.426;2023-04-03T19:34:22;102848.41;;;5.82;57.69
62420;BME280;48460;51.616;5.426;2023-04-03T19:37:18;102851.91;;;5.87;58.22
62420;BME280;48460;51.616;5.426;2023-04-03T19:43:38;102846.66;;;5.73;57.75
62420;BME280;48460;51.616;5.426;2023-04-03T19:46:07;102850.13;;;5.67;57.82
62420;BME280;48460;51.616;5.426;2023-04-03T19:48:44;102857.97;;;5.74;58.67
62420;BME280;48460;51.616;5.426;2023-04-03T19:51:13;102844.94;;;5.63;59.05
62420;BME280;48460;51.616;5.426;2023-04-03T19:53:42;102863.19;;;5.55;59.04
62420;BME280;48460;51.616;5.426;2023-04-03T19:56:07;102848.38;;;5.53;59.19
62420;BME280;48460;51.616;5.426;2023-04-03T19:58:33;102846.66;;;5.53;59.56
62420;BME280;48460;51.616;5.426;2023-04-03T20:00:59;102838.81;;;5.47;59.01
62420;BME280;48460;51.616;5.426;2023-04-03T20:03:32;102855.34;;;5.49;60.06
62420;BME280;48460;51.616;5.426;2023-04-03T20:06:53;102860.56;;;5.41;58.64
62420;BME280;48460;51.616;5.426;2023-04-03T20:10:23;102855.31;;;5.31;59.98
62420;BME280;48460;51.616;5.426;2023-04-03T20:13:54;102858.81;;;5.30;59.65
62420;BME280;48460;51.616;5.426;2023-04-03T20:16:22;102848.31;;;5.17;60.70
62420;BME280;48460;51.616;5.426;2023-04-03T20:19:44;102851.81;;;5.15;60.14
62420;BME280;48460;51.616;5.426;2023-04-03T20:22:40;102856.13;;;5.11;60.21
62420;BME280;48460;51.616;5.426;2023-04-03T20:25:11;102850.91;;;5.03;60.37
62420;BME280;48460;51.616;5.426;2023-04-03T20:28:00;102851.78;;;5.09;60.83
62420;BME280;48460;51.616;5.426;2023-04-03T20:30:42;102842.19;;;5.00;61.28
62420;BME280;48460;51.616;5.426;2023-04-03T20:36:32;102852.59;;;4.98;61.80
62420;BME280;48460;51.616;5.426;2023-04-03T20:39:00;102853.47;;;4.96;62.65
62420;BME280;48460;51.616;5.426;2023-04-03T20:41:25;102847.34;;;4.86;61.79
62420;BME280;48460;51.616;5.426;2023-04-03T20:43:52;102851.69;;;4.86;62.59
62420;BME280;48460;51.616;5.426;2023-04-03T20:46:19;102848.19;;;4.80;62.98
62420;BME280;48460;51.616;5.426;2023-04-03T20:48:49;102846.44;;;4.75;63.11
62420;BME280;48460;51.616;5.426;2023-04-03T20:51:17;102858.59;;;4.74;63.52
62420;BME280;48460;51.616;5.426;2023-04-03T20:53:46;102868.13;;;4.71;63.61
62420;BME280;48460;51.616;5.426;2023-04-03T20:56:12;102862.91;;;4.65;65.31
62420;BME280;48460;51.616;5.426;2023-04-03T20:58:39;102868.97;;;4.65;64.61
62420;BME280;48460;51.616;5.426;2023-04-03T21:01:21;102869.84;;;4.64;64.54
62420;BME280;48460;51.616;5.426;2023-04-03T21:03:50;102865.44;;;4.57;65.07
62420;BME280;48460;51.616;5.426;2023-04-03T21:20:41;102871.38;;;4.33;68.80
62420;BME280;48460;51.616;5.426;2023-04-03T21:23:06;102880.94;;;4.34;69.19
62420;BME280;48460;51.616;5.426;2023-04-03T21:25:32;102877.44;;;4.30;69.72
62420;BME280;48460;51.616;5.426;2023-04-03T21:27:58;102877.41;;;4.23;68.40
62420;BME280;48460;51.616;5.426;2023-04-03T21:30:25;102878.25;;;4.20;69.16
62420;BME280;48460;51.616;5.426;2023-04-03T21:32:53;102869.50;;;4.10;69.31
62420;BME280;48460;51.616;5.426;2023-04-03T21:35:18;102874.69;;;4.09;69.26
62420;BME280;48460;51.616;5.426;2023-04-03T21:37:44;102866.81;;;4.04;70.57
62420;BME280;48460;51.616;5.426;2023-04-03T21:40:09;102863.34;;;3.99;71.35
62420;BME280;48460;51.616;5.426;2023-04-03T21:42:35;102852.91;;;3.96;70.90
62420;BME280;48460;51.616;5.426;2023-04-03T21:45:01;102847.66;;;3.92;70.62
62420;BME280;48460;51.616;5.426;2023-04-03T21:47:27;102853.66;;;3.86;69.48
62420;BME280;48460;51.616;5.426;2023-04-03T21:49:53;102844.13;;;3.85;69.72
62420;BME280;48460;51.616;5.426;2023-04-03T21:52:19;102838.91;;;3.82;70.67
62420;BME280;48460;51.616;5.426;2023-04-03T21:54:46;102840.56;;;3.77;69.93
62420;BME280;48460;51.616;5.426;2023-04-03T21:57:11;102836.25;;;3.76;71.91
62420;BME280;48460;51.616;5.426;2023-04-03T21:59:37;102844.06;;;3.79;72.41
62420;BME280;48460;51.616;5.426;2023-04-03T22:02:04;102844.88;;;3.75;72.56
62420;BME280;48460;51.616;5.426;2023-04-03T22:04:30;102841.44;;;3.73;72.90
62420;BME280;48460;51.616;5.426;2023-04-03T22:06:55;102849.16;;;3.65;72.19
62420;BME280;48460;51.616;5.426;2023-04-03T22:09:22;102854.31;;;3.62;73.45
62420;BME280;48460;51.616;5.426;2023-04-03T22:11:48;102853.44;;;3.58;72.27
62420;BME280;48460;51.616;5.426;2023-04-03T22:14:14;102853.41;;;3.55;73.49
62420;BME280;48460;51.616;5.426;2023-04-03T22:16:41;102856.88;;;3.56;73.20
62420;BME280;48460;51.616;5.426;2023-04-03T22:19:12;102852.47;;;3.50;73.44
62420;BME280;48460;51.616;5.426;2023-04-03T22:21:38;102852.44;;;3.47;74.42
62420;BME280;48460;51.616;5.426;2023-04-03T22:24:05;102848.91;;;3.42;73.52
62420;BME280;48460;51.616;5.426;2023-04-03T22:26:31;102854.97;;;3.36;73.86
62420;BME280;48460;51.616;5.426;2023-04-03T22:28:56;102844.44;;;3.26;74.27
62420;BME280;48460;51.616;5.426;2023-04-03T22:31:22;102853.09;;;3.25;74.14
62420;BME280;48460;51.616;5.426;2023-04-03T22:33:48;102846.97;;;3.19;75.25
62420;BME280;48460;51.616;5.426;2023-04-03T22:36:14;102844.34;;;3.18;74.25
62420;BME280;48460;51.616;5.426;2023-04-03T22:38:42;102841.69;;;3.13;76.09
62420;BME280;48460;51.616;5.426;2023-04-03T22:41:08;102832.97;;;3.08;75.35
62420;BME280;48460;51.616;5.426;2023-04-03T22:43:35;102839.94;;;3.11;76.58
62420;BME280;48460;51.616;5.426;2023-04-03T22:46:03;102825.19;;;3.07;77.90
62420;BME280;48460;51.616;5.426;2023-04-03T22:48:29;102832.06;;;3.05;77.12
62420;BME280;48460;51.616;5.426;2023-04-03T22:50:55;102834.66;;;3.06;77.32
62420;BME280;48460;51.616;5.426;2023-04-03T22:53:45;102832.97;;;3.08;77.13
62420;BME280;48460;51.616;5.426;2023-04-03T23:00:24;102819.81;;;2.93;77.50
62420;BME280;48460;51.616;5.426;2023-04-03T23:03:11;102831.97;;;2.97;76.71
62420;BME280;48460;51.616;5.426;2023-04-03T23:09:47;102818.97;;;2.95;73.96
62420;BME280;48460;51.616;5.426;2023-04-03T23:13:14;102812.81;;;2.86;75.34
62420;BME280;48460;51.616;5.426;2023-04-03T23:16:34;102817.88;;;2.77;75.93
62420;BME280;48460;51.616;5.426;2023-04-03T23:19:40;102817.00;;;2.76;77.27
62420;BME280;48460;51.616;5.426;2023-04-03T23:22:14;102826.44;;;2.68;77.51
62420;BME280;48460;51.616;5.426;2023-04-03T23:24:40;102822.91;;;2.64;78.34
62420;BME280;48460;51.616;5.426;2023-04-03T23:27:05;102820.28;;;2.61;78.42
62420;BME280;48460;51.616;5.426;2023-04-03T23:29:31;102819.41;;;2.59;78.43
62420;BME280;48460;51.616;5.426;2023-04-03T23:31:58;102825.44;;;2.58;78.13
62420;BME280;48460;51.616;5.426;2023-04-03T23:34:24;102820.19;;;2.54;78.20
62420;BME280;48460;51.616;5.426;2023-04-03T23:36:50;102815.78;;;2.48;79.86
62420;BME280;48460;51.616;5.426;2023-04-03T23:39:15;102819.19;;;2.44;79.26
62420;BME280;48460;51.616;5.426;2023-04-03T23:41:44;102810.50;;;2.42;80.14
62420;BME280;48460;51.616;5.426;2023-04-03T23:44:10;102803.59;;;2.42;80.45
62420;BME280;48460;51.616;5.426;2023-04-03T23:46:38;102806.09;;;2.36;79.83
62420;BME280;48460;51.616;5.426;2023-04-03T23:49:04;102813.03;;;2.37;79.94
62420;BME280;48460;51.616;5.426;2023-04-03T23:51:29;102817.31;;;2.34;79.16
62420;BME280;48460;51.616;5.426;2023-04-03T23:54:20;102826.88;;;2.38;80.50
